Flight Briefing for CPX230

Departure Arrival
Chicago/Rockford International Airport (KRFD)
Click to view FAA NOTAMS
Phoenix Sky Harbor International Airport (KPHX)
Click to view FAA NOTAMS
Departure Time Arrival Time
N/A N/A
Aircraft Distance
B767-300BDSF 1204nm
Departure METAR Arrival METAR
KRFD 181601Z 32005KT 10SM BKN015 03/M02 A3040 RMK AO2 T00281017 KPHX 181551Z 09011KT 10SM CLR 21/06 A3002 RMK AO2 SLP154 T02060056
Suggested Route
DBQ J144 DSM OVR GLD ALS GUP EAGUL6


View recent IFR Routes data
Notes



Charts and Procedures

Charts for KRFD
No chart available
Charts for KPHX
No chart available

Windy.com Weather Map